Time;durP1;ratioP1;P1;durP2;ratioP2;P2;SDS_P1;SDS_P2;PMS_P1;PMS_P2;Temp;Humidity;BMP_temperature;BMP_pressure;BME280_temperature;BME280_humidity;BME280_pressure;Samples;Min_cycle;Max_cycle;Signal;HPM_P1;HPM_P2
2023/09/05 00:01:51;;;;;;;;;;;;;;;21.68;29.62;97833.94;5000551;28;846;-77
2023/09/05 00:04:17;;;;;;;;;;;;;;;21.77;29.59;97834.09;5016802;28;859;-77
2023/09/05 00:06:42;;;;;;;;;;;;;;;21.78;29.58;97855.50;5016807;28;1190;-77
2023/09/05 00:09:08;;;;;;;;;;;;;;;21.72;29.72;97862.97;5000510;28;1035;-77
2023/09/05 00:11:34;;;;;;;;;;;;;;;21.71;29.65;97861.38;5000332;28;1985;-77
2023/09/05 00:14:00;;;;;;;;;;;;;;;21.55;29.75;97861.41;5000376;28;891;-77
2023/09/05 00:16:26;;;;;;;;;;;;;;;21.73;29.55;97858.88;5017038;28;990;-78
2023/09/05 00:18:52;;;;;;;;;;;;;;;21.69;29.65;97846.84;5000093;28;1116;-78
2023/09/05 00:21:20;;;;;;;;;;;;;;;21.83;29.31;97840.78;5016573;28;1080;-77
2023/09/05 00:23:46;;;;;;;;;;;;;;;21.94;28.80;97846.13;5000327;28;1069;-78
2023/09/05 00:26:11;;;;;;;;;;;;;;;21.76;29.33;97848.66;5029060;28;980;-78
2023/09/05 00:28:37;;;;;;;;;;;;;;;21.68;29.68;97839.59;5037914;28;827;-78
2023/09/05 00:31:03;;;;;;;;;;;;;;;21.79;29.32;97834.41;5038837;28;1906;-77
2023/09/05 00:33:31;;;;;;;;;;;;;;;21.61;29.49;97831.34;5053521;28;917;-77
2023/09/05 00:35:57;;;;;;;;;;;;;;;21.71;29.51;97844.38;5036846;28;1148;-77
2023/09/05 00:38:22;;;;;;;;;;;;;;;22.01;28.71;97839.44;5038048;28;787;-77
2023/09/05 00:40:51;;;;;;;;;;;;;;;21.75;29.28;97832.94;5036825;28;1370;-77
2023/09/05 00:43:20;;;;;;;;;;;;;;;21.84;29.17;97831.03;5015936;28;1208;-77
2023/09/05 00:45:55;;;;;;;;;;;;;;;21.78;29.51;97832.03;4999452;28;1079;-77
2023/09/05 00:48:27;;;;;;;;;;;;;;;21.92;29.26;97825.16;5000411;28;1163;-78
2023/09/05 00:50:56;;;;;;;;;;;;;;;22.00;28.82;97843.50;4999953;28;1906;-78
2023/09/05 00:53:25;;;;;;;;;;;;;;;21.77;29.09;97847.44;4999513;28;1189;-77
2023/09/05 00:55:51;;;;;;;;;;;;;;;21.75;29.25;97839.38;4999431;28;1104;-78
2023/09/05 00:58:17;;;;;;;;;;;;;;;21.87;28.98;97840.69;4999285;28;1232;-77
2023/09/05 01:00:43;;;;;;;;;;;;;;;21.74;29.40;97849.13;4999526;28;1009;-78
2023/09/05 01:03:08;;;;;;;;;;;;;;;21.79;29.59;97845.75;4999152;28;1298;-77
2023/09/05 01:05:34;;;;;;;;;;;;;;;21.79;29.32;97851.41;4999054;28;1004;-78
2023/09/05 01:08:04;;;;;;;;;;;;;;;21.87;29.08;97851.22;4999364;28;1540;-77
2023/09/05 01:10:37;;;;;;;;;;;;;;;21.81;29.32;97843.28;4998994;28;1360;-78
2023/09/05 01:13:04;;;;;;;;;;;;;;;21.74;29.60;97849.13;5015346;28;949;-78
2023/09/05 01:15:29;;;;;;;;;;;;;;;21.72;29.61;97860.13;4982594;28;1387;-78
2023/09/05 01:17:57;;;;;;;;;;;;;;;21.65;29.54;97851.81;4998997;28;1063;-77
2023/09/05 01:20:24;;;;;;;;;;;;;;;21.79;29.35;97834.41;4999093;28;954;-78
2023/09/05 01:22:55;;;;;;;;;;;;;;;21.85;29.29;97832.59;4979217;28;1279;-78
2023/09/05 01:25:20;;;;;;;;;;;;;;;21.63;30.04;97843.00;4956665;29;1172;-78
2023/09/05 01:27:48;;;;;;;;;;;;;;;21.69;29.63;97848.91;4956938;29;1157;-78
2023/09/05 01:30:14;;;;;;;;;;;;;;;21.91;29.15;97863.22;4956549;29;988;-78
2023/09/05 01:32:39;;;;;;;;;;;;;;;21.55;29.83;97852.94;4956547;29;1911;-77
2023/09/05 01:35:05;;;;;;;;;;;;;;;21.64;29.72;97858.72;4956977;29;925;-77
2023/09/05 01:37:31;;;;;;;;;;;;;;;21.94;29.32;97862.31;4957041;29;1140;-78
2023/09/05 01:39:56;;;;;;;;;;;;;;;21.89;29.16;97879.88;4956976;29;1416;-78
2023/09/05 01:42:22;;;;;;;;;;;;;;;21.73;29.54;97887.19;4956904;29;1263;-77
2023/09/05 01:44:48;;;;;;;;;;;;;;;21.74;29.62;97888.00;4956463;29;1397;-77
2023/09/05 01:47:13;;;;;;;;;;;;;;;21.84;29.29;97886.88;4956717;29;1250;-78
2023/09/05 01:49:39;;;;;;;;;;;;;;;21.85;29.31;97894.91;4956719;29;1251;-78
2023/09/05 01:52:06;;;;;;;;;;;;;;;21.69;29.29;97886.50;4940755;29;1981;-77
2023/09/05 01:54:31;;;;;;;;;;;;;;;21.76;29.26;97894.00;4972065;28;1471;-78
2023/09/05 01:56:57;;;;;;;;;;;;;;;21.65;29.46;97897.13;5004050;28;1117;-77
2023/09/05 01:59:22;;;;;;;;;;;;;;;21.74;29.44;97900.09;5001707;28;1115;-77
2023/09/05 02:01:48;;;;;;;;;;;;;;;21.93;29.13;97889.06;5018080;28;1166;-78
2023/09/05 02:04:15;;;;;;;;;;;;;;;21.91;28.92;97897.19;5016485;28;1245;-78
2023/09/05 02:06:40;;;;;;;;;;;;;;;21.93;29.21;97889.06;5014579;28;969;-78
2023/09/05 02:09:06;;;;;;;;;;;;;;;22.02;28.66;97900.50;4995034;28;1064;-77
2023/09/05 02:11:32;;;;;;;;;;;;;;;21.88;28.73;97900.94;4991996;28;1969;-77
2023/09/05 02:13:57;;;;;;;;;;;;;;;21.94;28.72;97918.97;4995132;28;1221;-77
2023/09/05 02:16:24;;;;;;;;;;;;;;;22.07;28.50;97919.78;4995024;28;893;-77
2023/09/05 02:18:50;;;;;;;;;;;;;;;21.61;29.24;97913.44;4995035;28;1170;-78
2023/09/05 02:21:16;;;;;;;;;;;;;;;21.46;29.24;97909.41;4994884;28;936;-77
2023/09/05 02:23:41;;;;;;;;;;;;;;;21.67;29.03;97922.19;4998343;28;890;-78
2023/09/05 02:26:07;;;;;;;;;;;;;;;21.37;29.75;97926.25;4999297;28;907;-77
2023/09/05 02:28:32;;;;;;;;;;;;;;;21.54;29.20;97919.28;4982567;28;988;-77
2023/09/05 02:30:58;;;;;;;;;;;;;;;21.48;29.40;97916.22;4998746;28;1975;-77
2023/09/05 02:33:24;;;;;;;;;;;;;;;21.62;29.33;97914.25;4998758;28;1215;-77
2023/09/05 02:35:49;;;;;;;;;;;;;;;21.67;29.06;97917.31;4998727;28;1068;-77
2023/09/05 02:38:15;;;;;;;;;;;;;;;21.54;29.35;97919.28;4998356;28;931;-78
2023/09/05 02:40:46;;;;;;;;;;;;;;;21.59;29.33;97910.25;4966503;28;1039;-78
2023/09/05 02:43:12;;;;;;;;;;;;;;;21.80;28.99;97932.28;4966398;28;1246;-77
2023/09/05 02:45:38;;;;;;;;;;;;;;;21.62;29.08;97919.91;4999428;28;1150;-77
2023/09/05 02:48:04;;;;;;;;;;;;;;;21.51;29.09;97923.03;5016324;28;1141;-78
2023/09/05 02:50:29;;;;;;;;;;;;;;;21.59;29.36;97921.56;5001666;28;1106;-78
2023/09/05 02:52:55;;;;;;;;;;;;;;;21.89;28.83;97933.69;5001568;28;1914;-77
2023/09/05 02:55:21;;;;;;;;;;;;;;;21.82;28.98;97924.16;4985652;28;1295;-77
2023/09/05 02:57:46;;;;;;;;;;;;;;;21.42;29.33;97917.22;4985713;28;876;-78
2023/09/05 03:00:12;;;;;;;;;;;;;;;21.61;29.39;97913.44;4985614;28;1298;-78
2023/09/05 03:02:40;;;;;;;;;;;;;;;21.47;29.57;97923.13;5017964;28;908;-77
2023/09/05 03:05:06;;;;;;;;;;;;;;;21.44;29.52;97926.03;4998144;28;1172;-78
2023/09/05 03:07:32;;;;;;;;;;;;;;;21.55;29.17;97935.03;5017644;28;1146;-77
2023/09/05 03:09:57;;;;;;;;;;;;;;;21.55;29.12;97940.69;5017582;28;1139;-78
2023/09/05 03:12:23;;;;;;;;;;;;;;;21.72;28.65;97942.25;4985140;28;1992;-77
2023/09/05 03:14:49;;;;;;;;;;;;;;;21.70;28.81;97946.75;5017613;28;1229;-77
2023/09/05 03:17:14;;;;;;;;;;;;;;;21.65;28.58;97955.78;5017227;28;1358;-77
2023/09/05 03:19:40;;;;;;;;;;;;;;;21.63;28.90;97947.75;4985564;28;1560;-78
2023/09/05 03:22:06;;;;;;;;;;;;;;;21.82;28.57;97965.84;5002640;28;1304;-78
2023/09/05 03:24:35;;;;;;;;;;;;;;;21.55;28.86;97961.34;4997750;28;1131;-78
2023/09/05 03:27:02;;;;;;;;;;;;;;;21.35;29.51;97962.66;4997867;28;1120;-77
2023/09/05 03:29:27;;;;;;;;;;;;;;;21.31;29.29;97966.41;4965479;28;1227;-77
2023/09/05 03:31:54;;;;;;;;;;;;;;;21.46;29.10;97968.88;4950173;28;1906;-78
2023/09/05 03:34:20;;;;;;;;;;;;;;;21.45;29.34;97962.41;4960757;28;1141;-77
2023/09/05 03:36:45;;;;;;;;;;;;;;;21.58;28.73;97953.97;4993078;28;846;-77
2023/09/05 03:39:11;;;;;;;;;;;;;;;21.64;28.88;97940.84;4968585;28;1063;-78
2023/09/05 03:41:37;;;;;;;;;;;;;;;21.52;28.86;97945.22;5017309;28;909;-78
2023/09/05 03:44:02;;;;;;;;;;;;;;;21.59;28.86;97927.22;4998023;28;1114;-78
2023/09/05 03:46:28;;;;;;;;;;;;;;;21.63;28.89;97924.31;4949378;28;1298;-78
2023/09/05 03:48:55;;;;;;;;;;;;;;;21.53;29.00;97914.88;4965191;28;1281;-77
2023/09/05 03:51:21;;;;;;;;;;;;;;;21.56;28.88;97909.13;4977418;28;1989;-79
2023/09/05 03:53:46;;;;;;;;;;;;;;;21.48;28.99;97904.09;5000138;28;1796;-79
2023/09/05 03:56:12;;;;;;;;;;;;;;;21.47;28.92;97905.34;4965129;28;1378;-78
2023/09/05 03:58:38;;;;;;;;;;;;;;;21.37;29.33;97909.25;4965178;28;1167;-79
2023/09/05 04:01:04;;;;;;;;;;;;;;;21.43;28.97;97913.13;4981264;28;1266;-79
2023/09/05 04:03:32;;;;;;;;;;;;;;;21.49;28.98;97911.34;4982244;28;1053;-78
2023/09/05 04:06:01;;;;;;;;;;;;;;;21.46;29.12;97906.59;4998821;28;1678;-79
2023/09/05 04:08:27;;;;;;;;;;;;;;;21.55;28.97;97901.06;4997659;28;764;-79
2023/09/05 04:10:59;;;;;;;;;;;;;;;21.60;29.01;97906.16;5017623;28;1906;-78
2023/09/05 04:13:25;;;;;;;;;;;;;;;21.57;29.06;97907.09;5037222;28;813;-78
2023/09/05 04:15:51;;;;;;;;;;;;;;;21.65;28.79;97902.78;5037190;28;1133;-78
2023/09/05 04:18:18;;;;;;;;;;;;;;;21.56;29.21;97899.84;5037106;28;817;-79
2023/09/05 04:20:43;;;;;;;;;;;;;;;21.81;28.39;97899.91;5019848;28;896;-79
2023/09/05 04:23:09;;;;;;;;;;;;;;;21.58;28.95;97886.81;5036266;28;1127;-79
2023/09/05 04:25:40;;;;;;;;;;;;;;;21.77;28.65;97893.56;4986915;28;1183;-78
2023/09/05 04:28:07;;;;;;;;;;;;;;;21.55;28.88;97892.56;5020255;28;1129;-77
2023/09/05 04:30:33;;;;;;;;;;;;;;;21.71;28.81;97903.84;5019512;28;1428;-78
2023/09/05 04:32:59;;;;;;;;;;;;;;;21.82;28.56;97906.38;5026857;28;1983;-77
2023/09/05 04:35:24;;;;;;;;;;;;;;;21.50;29.36;97912.91;5053009;28;1728;-78
2023/09/05 04:37:51;;;;;;;;;;;;;;;21.30;29.66;97911.03;5011641;28;1278;-78
2023/09/05 04:40:16;;;;;;;;;;;;;;;21.40;29.63;97919.66;5019221;28;934;-78
2023/09/05 04:42:42;;;;;;;;;;;;;;;21.55;29.12;97903.88;5019590;28;1217;-77
2023/09/05 04:45:09;;;;;;;;;;;;;;;21.45;29.24;97902.97;5018923;28;1245;-78
2023/09/05 04:47:35;;;;;;;;;;;;;;;21.51;29.37;97897.56;5011123;28;1445;-78
2023/09/05 04:50:00;;;;;;;;;;;;;;;21.63;29.08;97899.63;4991790;28;894;-78
2023/09/05 04:52:27;;;;;;;;;;;;;;;21.41;29.29;97890.16;5011909;28;1903;-78
2023/09/05 04:54:54;;;;;;;;;;;;;;;21.28;29.63;97902.16;5015844;28;890;-77
2023/09/05 04:57:19;;;;;;;;;;;;;;;21.45;29.45;97896.47;4999647;28;1168;-78
2023/09/05 04:59:47;;;;;;;;;;;;;;;21.53;28.96;97884.53;5015661;28;941;-78
2023/09/05 05:02:15;;;;;;;;;;;;;;;21.70;28.86;97876.75;4999757;28;996;-78
2023/09/05 05:04:41;;;;;;;;;;;;;;;21.63;28.90;97871.31;5015817;28;1009;-78
2023/09/05 05:07:07;;;;;;;;;;;;;;;21.69;29.01;97863.84;5015504;28;791;-79
2023/09/05 05:09:34;;;;;;;;;;;;;;;22.03;28.18;97862.44;5015582;28;1079;-78
2023/09/05 05:12:00;;;;;;;;;;;;;;;21.72;28.90;97851.63;4963265;28;1973;-78
2023/09/05 05:14:25;;;;;;;;;;;;;;;21.45;29.12;97845.53;4963775;28;1044;-78
2023/09/05 05:16:51;;;;;;;;;;;;;;;21.42;29.58;97850.06;4996246;28;818;-78
2023/09/05 05:19:16;;;;;;;;;;;;;;;21.67;28.97;97855.03;4960335;28;895;-79
2023/09/05 05:21:42;;;;;;;;;;;;;;;21.47;29.30;97860.06;4991731;28;941;-78
2023/09/05 05:24:08;;;;;;;;;;;;;;;21.69;28.98;97880.84;4979697;28;888;-78
2023/09/05 05:26:33;;;;;;;;;;;;;;;21.57;28.96;97890.09;4956649;29;1011;-78
2023/09/05 05:28:59;;;;;;;;;;;;;;;21.59;29.21;97893.25;4957103;29;822;-78
2023/09/05 05:31:26;;;;;;;;;;;;;;;21.65;29.11;97891.47;4941061;29;1962;-78
2023/09/05 05:33:52;;;;;;;;;;;;;;;21.59;29.20;97893.25;4956850;29;897;-78
2023/09/05 05:36:17;;;;;;;;;;;;;;;21.74;29.00;97894.44;4957135;29;920;-78
2023/09/05 05:38:43;;;;;;;;;;;;;;;21.59;29.24;97887.59;4956859;29;858;-78
2023/09/05 05:41:09;;;;;;;;;;;;;;;21.89;29.00;97877.84;4956891;29;896;-78
2023/09/05 05:43:35;;;;;;;;;;;;;;;21.59;29.14;97893.25;4939295;28;1301;-78
2023/09/05 05:46:00;;;;;;;;;;;;;;;21.60;29.34;97911.84;4960044;28;967;-79
2023/09/05 05:48:26;;;;;;;;;;;;;;;21.63;29.37;97916.63;4975971;28;766;-78
2023/09/05 05:50:52;;;;;;;;;;;;;;;21.60;29.34;97928.81;5005525;28;1969;-79
2023/09/05 05:53:20;;;;;;;;;;;;;;;21.56;29.34;97943.09;5017378;28;1702;-78
2023/09/05 05:55:46;;;;;;;;;;;;;;;21.55;29.27;97957.69;5017690;28;1139;-78
2023/09/05 05:58:13;;;;;;;;;;;;;;;21.51;29.44;97971.16;5033576;28;814;-78
2023/09/05 06:00:50;;;;;;;;;;;;;;;21.59;29.11;97969.72;5034182;28;849;-79
2023/09/05 06:03:19;;;;;;;;;;;;;;;21.47;29.57;97970.44;4989300;28;1727;-78
2023/09/05 06:05:44;;;;;;;;;;;;;;;21.58;29.28;97982.28;5007244;28;807;-79
2023/09/05 06:08:10;;;;;;;;;;;;;;;21.18;29.98;97976.81;5014252;28;918;-80
2023/09/05 06:10:35;;;;;;;;;;;;;;;21.25;29.78;97965.31;5014017;28;1112;-79
2023/09/05 06:13:01;;;;;;;;;;;;;;;21.61;29.15;97978.56;5014367;28;1918;-79
2023/09/05 06:15:27;;;;;;;;;;;;;;;21.65;28.92;97990.56;5014974;28;920;-79
2023/09/05 06:17:52;;;;;;;;;;;;;;;21.40;29.25;97999.75;5008958;28;1788;-79
2023/09/05 06:20:19;;;;;;;;;;;;;;;21.56;29.17;98007.41;5013774;28;1682;-78
2023/09/05 06:22:44;;;;;;;;;;;;;;;21.75;28.78;98002.84;5005923;28;914;-79
2023/09/05 06:25:10;;;;;;;;;;;;;;;21.66;28.72;98012.00;4996154;28;1714;-78
2023/09/05 06:27:36;;;;;;;;;;;;;;;21.58;29.00;98010.59;5014639;28;855;-79
2023/09/05 06:30:02;;;;;;;;;;;;;;;21.26;29.62;98020.66;5014500;28;914;-79
2023/09/05 06:32:28;;;;;;;;;;;;;;;21.48;29.12;98025.81;4997223;28;1914;-79
2023/09/05 06:34:55;;;;;;;;;;;;;;;21.59;28.91;98029.16;5043107;28;852;-79
2023/09/05 06:37:28;;;;;;;;;;;;;;;21.65;28.83;98038.72;5056787;28;931;-78
2023/09/05 06:39:54;;;;;;;;;;;;;;;21.44;29.31;98030.78;5040066;28;1186;-79
2023/09/05 06:42:21;;;;;;;;;;;;;;;21.54;29.03;98032.53;5056829;28;946;-79
2023/09/05 06:44:47;;;;;;;;;;;;;;;21.58;28.96;98038.91;5055214;28;926;-79
2023/09/05 06:47:13;;;;;;;;;;;;;;;21.53;29.49;98025.28;5055370;28;989;-78
2023/09/05 06:49:39;;;;;;;;;;;;;;;21.42;29.55;98028.41;5055543;28;792;-78
2023/09/05 06:52:05;;;;;;;;;;;;;;;21.25;29.92;98038.09;5053999;28;1980;-78
2023/09/05 06:54:31;;;;;;;;;;;;;;;21.55;29.28;98036.94;5017507;28;799;-80
2023/09/05 06:56:56;;;;;;;;;;;;;;;21.45;29.18;98043.69;5001472;28;1232;-79
2023/09/05 06:59:22;;;;;;;;;;;;;;;21.43;29.21;98037.69;5013572;28;1702;-78
2023/09/05 07:01:48;;;;;;;;;;;;;;;21.70;28.49;98018.34;5030328;28;902;-79
2023/09/05 07:04:14;;;;;;;;;;;;;;;21.49;29.33;98028.19;5013688;28;957;-79
2023/09/05 07:06:39;;;;;;;;;;;;;;;21.61;29.33;98049.34;5013546;28;908;-78
2023/09/05 07:09:08;;;;;;;;;;;;;;;21.84;28.46;98037.78;5016050;28;1737;-78
2023/09/05 07:11:34;;;;;;;;;;;;;;;21.58;29.05;98022.72;5017253;28;1891;-78
2023/09/05 07:14:00;;;;;;;;;;;;;;;21.38;29.13;98024.06;5017539;28;964;-79
2023/09/05 07:16:25;;;;;;;;;;;;;;;21.55;28.75;98028.44;5034021;28;945;-78
2023/09/05 07:18:51;;;;;;;;;;;;;;;21.51;28.76;98016.44;5033991;28;894;-78
2023/09/05 07:21:16;;;;;;;;;;;;;;;21.22;29.29;98005.81;5036938;28;933;-78
2023/09/05 07:23:42;;;;;;;;;;;;;;;21.43;29.37;98013.00;5006058;28;1039;-78
2023/09/05 07:26:08;;;;;;;;;;;;;;;21.31;29.47;98013.72;5001482;28;964;-79
2023/09/05 07:28:33;;;;;;;;;;;;;;;21.57;29.34;98006.19;5017630;28;775;-78
2023/09/05 07:30:59;;;;;;;;;;;;;;;21.58;29.38;98021.91;5017364;28;1914;-78
2023/09/05 07:33:25;;;;;;;;;;;;;;;21.60;29.27;98019.41;5000919;28;1012;-78
2023/09/05 07:35:50;;;;;;;;;;;;;;;21.74;29.23;98019.06;5019694;28;1063;-78
2023/09/05 07:38:17;;;;;;;;;;;;;;;21.47;29.39;98010.09;5036906;28;973;-79
2023/09/05 07:40:43;;;;;;;;;;;;;;;21.54;29.42;98015.53;5037123;28;878;-78
2023/09/05 07:43:08;;;;;;;;;;;;;;;21.63;29.26;98018.53;5020380;28;816;-78
2023/09/05 07:45:35;;;;;;;;;;;;;;;21.30;29.78;98027.06;5020344;28;881;-78
2023/09/05 07:48:01;;;;;;;;;;;;;;;21.55;29.33;98017.97;5020692;28;1002;-78
2023/09/05 07:50:27;;;;;;;;;;;;;;;21.11;29.84;98016.59;5036726;28;939;-79
2023/09/05 07:52:52;;;;;;;;;;;;;;;21.42;29.61;98007.78;5032875;28;1977;-78
2023/09/05 07:55:18;;;;;;;;;;;;;;;21.41;29.41;98007.00;5054845;28;1096;-78
2023/09/05 07:57:44;;;;;;;;;;;;;;;21.40;29.47;97998.91;5038032;28;794;-78
2023/09/05 08:00:10;;;;;;;;;;;;;;;21.69;28.63;97982.78;5021648;28;950;-78
2023/09/05 08:02:38;;;;;;;;;;;;;;;21.49;29.08;97973.63;5037397;28;972;-79
2023/09/05 08:05:05;;;;;;;;;;;;;;;21.50;29.30;97975.19;5037651;28;801;-78
2023/09/05 08:07:30;;;;;;;;;;;;;;;21.37;29.57;97963.03;5021655;28;917;-78
2023/09/05 08:09:56;;;;;;;;;;;;;;;21.58;28.94;97956.78;5037528;28;1028;-78
2023/09/05 08:12:22;;;;;;;;;;;;;;;21.44;29.29;97957.16;5037585;28;1914;-78
2023/09/05 08:14:47;;;;;;;;;;;;;;;21.41;29.59;97958.09;5021191;28;1089;-78
2023/09/05 08:17:13;;;;;;;;;;;;;;;21.38;29.53;97939.16;5021026;28;877;-78
2023/09/05 08:19:38;;;;;;;;;;;;;;;21.38;29.77;97950.47;5019939;28;975;-78
2023/09/05 08:22:05;;;;;;;;;;;;;;;21.27;29.71;97957.16;5037041;28;1023;-78
2023/09/05 08:24:31;;;;;;;;;;;;;;;21.63;29.39;97955.47;5038689;28;798;-78
2023/09/05 08:26:56;;;;;;;;;;;;;;;21.73;29.29;97966.50;5021150;28;1119;-78
2023/09/05 08:29:23;;;;;;;;;;;;;;;21.35;29.89;97962.66;5053919;28;1525;-78
2023/09/05 08:31:49;;;;;;;;;;;;;;;21.45;29.79;97968.06;5003766;28;1906;-78
2023/09/05 08:34:14;;;;;;;;;;;;;;;21.42;30.16;97982.31;5037125;28;1036;-78
2023/09/05 08:36:41;;;;;;;;;;;;;;;21.45;30.20;97984.22;5035863;28;1041;-78
2023/09/05 08:39:07;;;;;;;;;;;;;;;21.55;30.01;97989.63;5035553;28;1201;-78
2023/09/05 08:41:33;;;;;;;;;;;;;;;21.24;30.27;97988.38;5035569;28;993;-78
2023/09/05 08:43:59;;;;;;;;;;;;;;;21.45;30.22;97981.41;5038696;28;1803;-78
2023/09/05 08:46:25;;;;;;;;;;;;;;;21.23;30.27;97973.44;5019510;28;1171;-78
2023/09/05 08:48:51;;;;;;;;;;;;;;;21.58;29.80;97976.63;5029822;28;1788;-78
2023/09/05 08:51:17;;;;;;;;;;;;;;;21.46;29.73;97964.00;5019305;28;1913;-78
2023/09/05 08:53:44;;;;;;;;;;;;;;;21.29;30.15;97949.03;5002369;28;1281;-78
2023/09/05 08:56:10;;;;;;;;;;;;;;;21.45;30.08;97950.25;5018633;28;1308;-78
2023/09/05 08:58:35;;;;;;;;;;;;;;;21.77;29.66;97944.53;5034835;28;735;-78
2023/09/05 09:01:01;;;;;;;;;;;;;;;21.60;29.51;97951.47;5034737;28;774;-79
2023/09/05 09:03:27;;;;;;;;;;;;;;;21.52;29.92;97962.22;5035408;28;977;-78
2023/09/05 09:05:53;;;;;;;;;;;;;;;21.56;30.11;97967.78;5049388;28;1344;-78
2023/09/05 09:08:18;;;;;;;;;;;;;;;21.69;29.82;97968.63;5035506;28;981;-78
2023/09/05 09:11:05;;;;;;;;;;;;;;;21.53;30.15;97974.31;5041141;28;1667;-78
2023/09/05 09:13:31;;;;;;;;;;;;;;;21.43;30.46;97978.22;5050295;28;995;-78
2023/09/05 09:15:56;;;;;;;;;;;;;;;21.54;30.58;97992.91;5054472;28;1862;-78
2023/09/05 09:18:22;;;;;;;;;;;;;;;21.53;30.54;98013.97;5053867;28;1716;-79
2023/09/05 09:20:51;;;;;;;;;;;;;;;21.69;30.42;97999.78;5036338;28;997;-79
2023/09/05 09:23:26;;;;;;;;;;;;;;;21.81;29.99;98003.91;5046492;28;1791;-79
2023/09/05 09:25:54;;;;;;;;;;;;;;;21.37;30.72;98005.50;5054502;28;937;-78
2023/09/05 09:28:21;;;;;;;;;;;;;;;21.63;30.36;98004.38;5033440;28;1359;-79
2023/09/05 09:30:48;;;;;;;;;;;;;;;21.59;30.70;98012.19;5033476;28;813;-79
2023/09/05 09:33:14;;;;;;;;;;;;;;;21.62;30.32;98019.78;5008714;28;1906;-77
2023/09/05 09:35:39;;;;;;;;;;;;;;;21.85;30.00;98035.75;5031833;28;1716;-77
2023/09/05 09:38:05;;;;;;;;;;;;;;;21.74;30.40;98041.72;5016712;28;1748;-78
2023/09/05 09:40:36;;;;;;;;;;;;;;;21.67;30.43;98041.91;5022738;28;960;-79
2023/09/05 09:43:02;;;;;;;;;;;;;;;21.70;30.24;98057.19;5034383;28;779;-78
2023/09/05 09:45:28;;;;;;;;;;;;;;;21.55;30.63;98068.91;5034044;28;921;-79
2023/09/05 09:47:53;;;;;;;;;;;;;;;21.90;30.21;98062.75;5051740;28;1126;-78
2023/09/05 09:50:19;;;;;;;;;;;;;;;21.58;30.70;98072.88;5020944;28;723;-78
2023/09/05 09:52:48;;;;;;;;;;;;;;;21.60;30.76;98070.38;5020790;28;1930;-78
2023/09/05 09:55:14;;;;;;;;;;;;;;;21.97;30.04;98071.06;5033800;28;1753;-79
2023/09/05 09:57:44;;;;;;;;;;;;;;;22.08;30.32;98065.91;5037194;28;938;-78
2023/09/05 10:00:15;;;;;;;;;;;;;;;22.10;30.49;98069.06;5017465;28;1803;-79
2023/09/05 10:02:42;;;;;;;;;;;;;;;21.88;30.54;98065.25;5029362;28;864;-78
2023/09/05 10:05:09;;;;;;;;;;;;;;;21.87;30.59;98060.81;5039190;28;1757;-78
2023/09/05 10:07:35;;;;;;;;;;;;;;;21.88;30.57;98068.88;5054395;28;834;-78
2023/09/05 10:10:00;;;;;;;;;;;;;;;21.74;30.86;98057.91;5054098;28;1063;-78
2023/09/05 10:12:26;;;;;;;;;;;;;;;21.78;30.36;98065.06;5041751;28;1910;-78
2023/09/05 10:14:51;;;;;;;;;;;;;;;21.42;30.79;98058.72;5051224;28;1259;-78
2023/09/05 10:17:17;;;;;;;;;;;;;;;21.57;30.74;98054.31;5071979;28;979;-77
2023/09/05 10:19:43;;;;;;;;;;;;;;;21.79;30.38;98055.34;5071611;28;865;-78
2023/09/05 10:22:08;;;;;;;;;;;;;;;21.75;30.27;98060.28;5072309;28;754;-78
2023/09/05 10:24:34;;;;;;;;;;;;;;;21.81;30.07;98058.53;5065712;28;1731;-78
2023/09/05 10:26:59;;;;;;;;;;;;;;;22.00;29.56;98067.34;5038553;28;1224;-78
2023/09/05 10:29:43;;;;;;;;;;;;;;;21.79;30.13;98060.19;5071872;28;991;-78
2023/09/05 10:32:09;;;;;;;;;;;;;;;21.85;29.72;98070.53;5051327;28;1906;-78
2023/09/05 10:34:47;;;;;;;;;;;;;;;21.27;31.07;98076.03;5036976;28;820;-78
2023/09/05 10:37:13;;;;;;;;;;;;;;;21.48;30.58;98082.44;5051918;28;762;-78
2023/09/05 10:39:48;;;;;;;;;;;;;;;21.58;30.75;98078.53;5044529;28;1819;-78
2023/09/05 10:42:14;;;;;;;;;;;;;;;21.66;30.35;98071.47;5034342;28;919;-78
2023/09/05 10:44:44;;;;;;;;;;;;;;;21.76;30.44;98076.06;5074810;28;896;-78
2023/09/05 10:47:23;;;;;;;;;;;;;;;21.89;30.16;98081.78;5075921;28;972;-78
2023/09/05 10:49:48;;;;;;;;;;;;;;;22.14;29.55;98091.69;5059931;28;850;-78
2023/09/05 10:52:18;;;;;;;;;;;;;;;21.94;30.02;98083.28;5075474;28;1910;-78
2023/09/05 10:54:44;;;;;;;;;;;;;;;21.78;30.17;98086.94;5042078;28;1276;-78
2023/09/05 10:57:28;;;;;;;;;;;;;;;21.71;30.65;98076.59;5075441;28;924;-78
2023/09/05 10:59:54;;;;;;;;;;;;;;;21.79;29.93;98066.66;5058435;28;886;-79
2023/09/05 11:02:24;;;;;;;;;;;;;;;21.75;30.33;98077.28;5058736;28;1130;-78
2023/09/05 11:04:49;;;;;;;;;;;;;;;21.60;30.19;98064.72;5075088;28;790;-80
2023/09/05 11:07:18;;;;;;;;;;;;;;;21.32;30.85;98067.03;5059804;28;814;-78
2023/09/05 11:09:46;;;;;;;;;;;;;;;21.73;30.01;98064.81;5059719;28;1274;-78
2023/09/05 11:12:12;;;;;;;;;;;;;;;21.59;30.34;98069.59;5074846;28;1981;-78
2023/09/05 11:14:38;;;;;;;;;;;;;;;21.60;29.91;98070.38;5075138;28;881;-78
2023/09/05 11:17:04;;;;;;;;;;;;;;;21.33;30.63;98070.66;5059757;28;787;-78
2023/09/05 11:19:40;;;;;;;;;;;;;;;21.30;30.50;98074.41;5056802;28;1003;-78
2023/09/05 11:22:14;;;;;;;;;;;;;;;21.53;30.36;98076.25;5037361;28;1606;-79
2023/09/05 11:24:45;;;;;;;;;;;;;;;21.78;29.71;98073.56;5037023;28;990;-78
2023/09/05 11:27:11;;;;;;;;;;;;;;;21.81;29.77;98086.84;5037513;28;841;-78
2023/09/05 11:29:39;;;;;;;;;;;;;;;21.59;30.21;98091.47;5037321;28;1057;-78
2023/09/05 11:32:05;;;;;;;;;;;;;;;21.25;30.90;98091.88;5036770;28;1914;-78
2023/09/05 11:34:31;;;;;;;;;;;;;;;21.71;30.02;98087.09;5037043;28;961;-78
2023/09/05 11:36:56;;;;;;;;;;;;;;;21.49;30.16;98081.19;5037433;28;782;-78
2023/09/05 11:39:28;;;;;;;;;;;;;;;21.67;29.83;98081.56;5036727;28;900;-78
2023/09/05 11:41:58;;;;;;;;;;;;;;;21.66;29.85;98062.97;5036752;28;991;-77
2023/09/05 11:44:29;;;;;;;;;;;;;;;21.72;29.83;98074.56;5036849;28;991;-78
2023/09/05 11:46:55;;;;;;;;;;;;;;;21.90;29.49;98082.56;5037426;28;783;-78
2023/09/05 11:49:21;;;;;;;;;;;;;;;21.75;29.52;98068.00;5037354;28;901;-78
2023/09/05 11:51:46;;;;;;;;;;;;;;;21.71;29.84;98064.44;5040153;28;1978;-78
2023/09/05 11:54:12;;;;;;;;;;;;;;;22.00;29.50;98070.16;5056457;28;956;-79
2023/09/05 11:56:37;;;;;;;;;;;;;;;21.73;29.96;98067.66;5074334;28;782;-78
2023/09/05 11:59:03;;;;;;;;;;;;;;;21.62;30.22;98079.25;5057768;28;1022;-78
2023/09/05 12:01:29;;;;;;;;;;;;;;;21.78;30.23;98069.94;5074074;28;1522;-78
2023/09/05 12:04:03;;;;;;;;;;;;;;;21.95;29.62;98082.03;5058725;28;1092;-78
2023/09/05 12:06:32;;;;;;;;;;;;;;;21.87;30.10;98066.50;5057350;28;782;-78
2023/09/05 12:08:58;;;;;;;;;;;;;;;21.76;29.92;98070.41;5074237;28;1114;-78
2023/09/05 12:11:27;;;;;;;;;;;;;;;21.78;30.12;98065.06;5057160;28;1989;-78
2023/09/05 12:13:56;;;;;;;;;;;;;;;21.78;30.03;98070.75;5073594;28;850;-79
2023/09/05 12:16:22;;;;;;;;;;;;;;;21.71;30.23;98070.94;5039701;28;1280;-78
2023/09/05 12:18:48;;;;;;;;;;;;;;;21.71;30.13;98070.94;5039681;28;831;-78
2023/09/05 12:21:14;;;;;;;;;;;;;;;21.73;30.13;98068.44;5023402;28;1087;-79
2023/09/05 12:23:39;;;;;;;;;;;;;;;21.86;30.12;98060.00;5039611;28;848;-78
2023/09/05 12:26:06;;;;;;;;;;;;;;;21.99;29.91;98063.72;5023048;28;1094;-78
2023/09/05 12:28:31;;;;;;;;;;;;;;;21.95;29.85;98068.66;5039216;28;1052;-78
2023/09/05 12:31:20;;;;;;;;;;;;;;;21.83;30.19;98067.38;5039455;28;1105;-77
2023/09/05 12:33:45;;;;;;;;;;;;;;;21.70;30.43;98074.19;5023884;28;1036;-78
2023/09/05 12:36:11;;;;;;;;;;;;;;;21.70;30.26;98072.16;5032485;28;1190;-79
2023/09/05 12:38:37;;;;;;;;;;;;;;;21.54;30.82;98066.50;5032317;28;905;-78
2023/09/05 12:41:02;;;;;;;;;;;;;;;21.70;30.47;98069.31;5015980;28;976;-79
2023/09/05 12:43:28;;;;;;;;;;;;;;;21.79;30.45;98072.31;5032367;28;903;-78
2023/09/05 12:45:53;;;;;;;;;;;;;;;21.81;30.33;98075.53;5032642;28;944;-78
2023/09/05 12:48:19;;;;;;;;;;;;;;;21.72;30.26;98083.84;5016844;28;1202;-78
2023/09/05 12:50:48;;;;;;;;;;;;;;;21.58;30.67;98079.34;5035664;28;992;-78
2023/09/05 12:53:14;;;;;;;;;;;;;;;21.68;30.31;98071.03;5002514;28;1983;-78
2023/09/05 12:55:41;;;;;;;;;;;;;;;21.64;30.22;98079.59;5018906;28;920;-78
2023/09/05 12:58:06;;;;;;;;;;;;;;;21.56;30.84;98078.19;5002538;28;1111;-78